Time;durP1;ratioP1;P1;durP2;ratioP2;P2;SDS_P1;SDS_P2;PMS_P1;PMS_P2;Temp;Humidity;BMP_temperature;BMP_pressure;BME280_temperature;BME280_humidity;BME280_pressure;Samples;Min_cycle;Max_cycle;Signal;HPM_P1;HPM_P2
2021/08/25 04:48:04;;;;;;;19.98;4.47;;;;;;;10.10;73.03;100699.59;5007090;28;106520;-62
2021/08/25 04:50:30;;;;;;;14.02;4.28;;;;;;;10.20;73.35;100694.16;5005618;28;106356;-63
2021/08/25 04:52:55;;;;;;;12.90;3.90;;;;;;;10.37;73.26;100704.97;5003704;28;106045;-63
2021/08/25 04:55:21;;;;;;;7.30;3.72;;;;;;;10.51;73.48;100699.03;5003924;28;106340;-65
2021/08/25 04:57:46;;;;;;;9.60;3.70;;;;;;;10.65;73.59;100698.47;5004495;28;105990;-63
2021/08/25 05:00:12;;;;;;;12.77;4.25;;;;;;;10.82;73.98;100699.38;5005525;28;105915;-65
2021/08/25 05:02:37;;;;;;;13.45;4.43;;;;;;;11.00;73.91;100696.66;5004997;28;106261;-65
2021/08/25 05:05:03;;;;;;;15.32;4.85;;;;;;;11.18;74.03;100698.34;5004802;28;114005;-67
2021/08/25 05:07:28;;;;;;;11.73;4.03;;;;;;;11.35;74.19;100701.91;5003858;28;106036;-66
2021/08/25 05:09:54;;;;;;;11.43;3.53;;;;;;;11.49;73.60;100695.94;5004508;28;105963;-67
2021/08/25 05:12:19;;;;;;;8.90;4.72;;;;;;;11.67;73.62;100709.16;5005206;28;106295;-67
2021/08/25 05:14:44;;;;;;;11.93;4.72;;;;;;;11.83;73.49;100707.50;5005030;28;106529;-65
2021/08/25 05:17:10;;;;;;;12.88;4.97;;;;;;;11.99;74.07;100710.22;5004776;28;106362;-65
2021/08/25 05:19:35;;;;;;;10.35;4.50;;;;;;;12.15;74.01;100698.69;5005481;28;106080;-65
2021/08/25 05:22:01;;;;;;;11.30;4.22;;;;;;;12.33;73.44;100703.03;5005163;28;106285;-66
2021/08/25 05:24:26;;;;;;;11.23;4.55;;;;;;;12.48;73.21;100695.13;5004269;28;106897;-65
2021/08/25 05:26:51;;;;;;;12.02;4.25;;;;;;;12.61;73.15;100699.97;5004443;28;106775;-64
2021/08/25 05:29:17;;;;;;;9.40;3.78;;;;;;;12.75;73.08;100699.22;5004981;28;105992;-66
2021/08/25 05:31:42;;;;;;;8.63;4.43;;;;;;;12.91;72.68;100697.53;5004774;28;105889;-66
2021/08/25 05:34:07;;;;;;;9.27;3.47;;;;;;;13.07;72.47;100701.94;5004511;28;105790;-66
2021/08/25 05:36:33;;;;;;;10.57;3.97;;;;;;;13.20;72.72;100694.19;5004397;28;106131;-64
2021/08/25 05:38:58;;;;;;;10.20;3.63;;;;;;;13.39;72.21;100700.16;5005254;28;105881;-64
2021/08/25 05:41:24;;;;;;;12.27;4.47;;;;;;;13.53;72.14;100694.03;5004738;28;106380;-65
2021/08/25 05:43:49;;;;;;;11.82;4.18;;;;;;;13.65;71.74;100692.63;5004492;28;106811;-65
2021/08/25 05:46:15;;;;;;;7.13;3.80;;;;;;;13.80;71.60;100692.69;5003883;28;106157;-64
2021/08/25 05:48:40;;;;;;;10.45;4.10;;;;;;;13.95;71.31;100684.69;5005330;28;105996;-65
2021/08/25 05:51:05;;;;;;;6.40;3.03;;;;;;;14.11;71.13;100685.59;5003994;28;106174;-65
2021/08/25 05:53:31;;;;;;;11.10;3.65;;;;;;;14.30;70.86;100689.59;5003868;28;107707;-65
2021/08/25 05:55:56;;;;;;;7.28;3.47;;;;;;;14.45;70.51;100689.59;4996183;28;106169;-63
2021/08/25 05:58:21;;;;;;;9.98;3.78;;;;;;;14.60;70.26;100681.56;4977512;28;106477;-63
2021/08/25 06:00:47;;;;;;;5.88;2.85;;;;;;;14.75;69.90;100682.44;4972628;28;106166;-65
2021/08/25 06:03:12;;;;;;;8.75;3.15;;;;;;;14.96;69.32;100683.53;4970538;28;106076;-65
2021/08/25 06:05:37;;;;;;;8.05;3.28;;;;;;;15.12;69.02;100687.84;4968748;28;110823;-64
2021/08/25 06:08:04;;;;;;;7.45;2.72;;;;;;;15.31;68.89;100691.78;4986122;28;105819;-65
2021/08/25 06:10:30;;;;;;;7.03;3.55;;;;;;;15.50;67.98;100695.69;4990955;28;105961;-65
2021/08/25 06:12:55;;;;;;;8.07;2.90;;;;;;;15.75;67.87;100690.81;4990199;28;106082;-66
2021/08/25 06:15:21;;;;;;;6.18;3.00;;;;;;;16.02;67.23;100693.75;4989936;28;111379;-65
2021/08/25 06:17:46;;;;;;;7.80;3.40;;;;;;;16.24;66.49;100690.00;4990255;28;105798;-64
2021/08/25 06:20:12;;;;;;;8.45;3.42;;;;;;;16.55;65.90;100690.63;4990360;28;106130;-66
2021/08/25 06:22:37;;;;;;;10.82;3.38;;;;;;;16.78;65.00;100687.66;4989997;28;105839;-66
2021/08/25 06:25:04;;;;;;;7.88;3.63;;;;;;;17.04;64.25;100699.59;4988705;28;105942;-66
2021/08/25 06:27:29;;;;;;;7.07;3.42;;;;;;;17.29;63.38;100699.91;4990893;28;105912;-66
2021/08/25 06:29:54;;;;;;;6.57;3.30;;;;;;;17.37;62.16;100698.88;4990633;28;106224;-66
2021/08/25 06:32:20;;;;;;;6.82;3.65;;;;;;;17.41;61.52;100697.44;4990147;28;105934;-67
2021/08/25 06:34:45;;;;;;;7.95;3.45;;;;;;;17.47;60.63;100696.66;4990310;28;106094;-67
2021/08/25 06:37:10;;;;;;;10.52;3.45;;;;;;;17.80;61.67;100695.88;4985094;28;106730;-66
2021/08/25 06:39:36;;;;;;;8.98;3.45;;;;;;;18.01;59.61;100686.78;4970792;28;106509;-68
2021/08/25 06:42:01;;;;;;;13.32;5.00;;;;;;;17.96;59.48;100685.75;4968742;28;107000;-66
2021/08/25 06:44:26;;;;;;;24.17;14.68;;;;;;;18.11;60.16;100680.97;4969767;28;106372;-66
2021/08/25 06:46:52;;;;;;;10.27;4.53;;;;;;;18.42;59.92;100677.63;4969848;28;106226;-66
2021/08/25 06:49:17;;;;;;;9.50;4.88;;;;;;;18.71;59.25;100677.34;4970110;28;106182;-65
2021/08/25 06:51:43;;;;;;;12.35;6.05;;;;;;;19.01;58.34;100674.16;4969892;28;106228;-67
2021/08/25 06:54:09;;;;;;;10.80;4.70;;;;;;;19.03;56.71;100667.50;4969849;28;105876;-67
2021/08/25 06:56:34;;;;;;;12.25;5.60;;;;;;;18.77;56.42;100668.41;4970476;28;105971;-66
2021/08/25 06:58:59;;;;;;;9.93;5.10;;;;;;;18.79;56.60;100660.94;4969865;28;106153;-65
2021/08/25 07:01:25;;;;;;;9.63;3.92;;;;;;;18.64;56.15;100663.06;4969873;28;106245;-65
2021/08/25 07:03:50;;;;;;;8.80;3.55;;;;;;;18.68;55.81;100658.91;4969666;28;106408;-66
2021/08/25 07:06:16;;;;;;;9.98;4.43;;;;;;;18.40;54.43;100662.72;4970887;28;105971;-66
2021/08/25 07:08:41;;;;;;;7.72;3.92;;;;;;;17.99;54.50;100655.69;4969898;28;106509;-67
2021/08/25 07:11:06;;;;;;;8.38;4.63;;;;;;;17.73;55.03;100651.94;4968124;28;116442;-67
2021/08/25 07:13:32;;;;;;;8.07;3.58;;;;;;;17.81;56.36;100651.72;4969018;28;105812;-66
2021/08/25 07:15:57;;;;;;;10.63;3.90;;;;;;;17.90;55.69;100647.78;4970137;28;105904;-69
2021/08/25 07:18:22;;;;;;;9.00;4.45;;;;;;;17.85;55.53;100652.97;4969432;28;106113;-64
2021/08/25 07:20:48;;;;;;;8.85;3.72;;;;;;;17.91;55.75;100646.78;4969259;28;105969;-65
2021/08/25 07:23:13;;;;;;;8.05;3.65;;;;;;;17.93;55.53;100642.03;4969816;28;105883;-65
2021/08/25 07:25:39;;;;;;;9.60;3.50;;;;;;;18.13;55.91;100641.16;4970368;28;106137;-67
2021/08/25 07:28:05;;;;;;;9.20;4.22;;;;;;;18.37;55.63;100636.13;4969504;28;106102;-68
2021/08/25 07:30:30;;;;;;;8.10;3.60;;;;;;;18.68;55.57;100635.44;4969105;28;105924;-66
2021/08/25 07:32:55;;;;;;;11.02;3.83;;;;;;;18.91;55.04;100629.56;4969178;28;106435;-66
2021/08/25 07:35:21;;;;;;;7.88;4.00;;;;;;;19.03;53.92;100623.50;4970131;28;105978;-67
2021/08/25 07:37:46;;;;;;;8.98;3.25;;;;;;;19.09;53.44;100617.22;4969495;28;106442;-65
2021/08/25 07:40:12;;;;;;;7.93;3.35;;;;;;;19.18;53.03;100624.03;4969074;28;106267;-67
2021/08/25 07:42:37;;;;;;;9.80;3.10;;;;;;;19.28;52.43;100615.44;4968640;28;105896;-66
2021/08/25 07:45:04;;;;;;;8.27;3.78;;;;;;;19.39;52.63;100616.63;4970130;28;106509;-66
2021/08/25 07:47:30;;;;;;;6.20;3.17;;;;;;;19.73;52.34;100623.44;4969000;28;106448;-66
2021/08/25 07:49:55;;;;;;;7.30;3.13;;;;;;;19.74;50.80;100619.69;4969216;28;106501;-66
2021/08/25 07:52:20;;;;;;;8.10;3.65;;;;;;;19.69;50.19;100613.28;4968837;28;105844;-67
2021/08/25 07:54:46;;;;;;;11.18;3.55;;;;;;;19.56;50.49;100611.50;4969773;28;105860;-66
2021/08/25 07:57:11;;;;;;;7.65;3.58;;;;;;;19.92;51.52;100604.59;4969181;28;106289;-66
2021/08/25 07:59:36;;;;;;;8.80;2.75;;;;;;;20.30;50.87;100606.31;4969250;28;105982;-66
2021/08/25 08:02:02;;;;;;;8.85;3.80;;;;;;;20.66;49.50;100604.63;4969141;28;106115;-66
2021/08/25 08:04:27;;;;;;;9.90;3.40;;;;;;;20.85;48.51;100602.75;4969551;28;106626;-66
2021/08/25 08:06:53;;;;;;;8.15;3.20;;;;;;;21.07;48.26;100608.50;4968504;28;106275;-65
2021/08/25 08:09:19;;;;;;;7.20;3.20;;;;;;;21.30;47.45;100606.94;4968690;28;105779;-65
2021/08/25 08:11:45;;;;;;;12.88;3.65;;;;;;;21.60;47.30;100603.38;4968544;28;106291;-65
2021/08/25 08:14:11;;;;;;;7.75;2.88;;;;;;;21.79;45.53;100604.13;4969349;28;107010;-64
2021/08/25 08:16:36;;;;;;;7.35;2.92;;;;;;;21.88;45.28;100602.69;4968787;28;106129;-65
2021/08/25 08:21:49;;;;;;;8.60;2.80;;;;;;;22.43;44.76;100581.66;4968631;28;105979;-63
2021/08/25 08:24:14;;;;;;;8.00;3.10;;;;;;;22.78;44.28;100578.03;4968781;28;105867;-64
2021/08/25 08:26:40;;;;;;;6.88;3.33;;;;;;;23.23;43.64;100574.53;4968831;28;105963;-66
2021/08/25 08:29:06;;;;;;;7.43;3.20;;;;;;;23.61;42.65;100559.38;4968248;28;106603;-66
2021/08/25 08:31:32;;;;;;;7.68;2.90;;;;;;;24.02;41.62;100561.06;4968556;28;105805;-64
2021/08/25 08:33:58;;;;;;;7.80;3.42;;;;;;;24.21;41.00;100561.59;4969019;28;105977;-65
2021/08/25 08:36:23;;;;;;;8.88;3.10;;;;;;;24.36;40.01;100556.38;4968604;28;106203;-65
2021/08/25 08:38:48;;;;;;;10.43;3.85;;;;;;;24.63;39.77;100553.72;4968242;28;106135;-65
2021/08/25 08:41:14;;;;;;;8.07;2.90;;;;;;;24.72;38.61;100545.91;4968337;28;105805;-65
2021/08/25 08:43:48;;;;;;;6.82;2.78;;;;;;;24.80;38.19;100550.09;4969069;28;105971;-65
2021/08/25 08:46:21;;;;;;;9.40;3.40;;;;;;;25.37;38.34;100553.34;4968605;28;105915;-65
2021/08/25 08:48:47;;;;;;;6.43;3.28;;;;;;;25.85;37.21;100555.06;4979221;28;105952;-65
2021/08/25 08:51:20;;;;;;;9.82;3.65;;;;;;;26.43;35.98;100543.34;4984498;28;106351;-64
2021/08/25 08:53:47;;;;;;;7.90;2.88;;;;;;;26.78;35.29;100552.78;4988562;28;106133;-64
2021/08/25 08:56:12;;;;;;;8.30;4.18;;;;;;;26.67;34.74;100537.44;4987638;28;106358;-64
2021/08/25 08:58:40;;;;;;;7.47;3.78;;;;;;;26.56;34.52;100533.00;4987463;28;105977;-65
2021/08/25 09:01:06;;;;;;;8.77;3.10;;;;;;;27.93;33.53;100541.56;4986927;28;105878;-65
2021/08/25 09:03:34;;;;;;;6.38;3.10;;;;;;;31.06;31.27;100533.59;4988474;28;105866;-62
2021/08/25 09:06:02;;;;;;;8.85;3.45;;;;;;;34.21;26.08;100541.19;4987553;28;106590;-64
2021/08/25 09:08:30;;;;;;;7.00;3.30;;;;;;;36.73;21.88;100537.28;4986301;28;105951;-65
2021/08/25 09:11:09;;;;;;;7.90;2.95;;;;;;;34.23;21.92;100533.41;4986503;28;106162;-65
2021/08/25 09:13:49;;;;;;;5.80;3.05;;;;;;;33.65;23.87;100536.09;4987977;28;106000;-64
2021/08/25 09:16:29;;;;;;;5.68;3.30;;;;;;;36.74;21.33;100525.88;4985637;28;106175;-64
2021/08/25 09:19:04;;;;;;;10.60;3.47;;;;;;;39.94;18.89;100516.47;4985781;28;106714;-64
2021/08/25 09:21:40;;;;;;;7.32;3.20;;;;;;;40.59;17.38;100520.75;4984580;28;106083;-64
2021/08/25 09:24:06;;;;;;;10.30;4.07;;;;;;;40.43;17.56;100515.97;4987390;28;106038;-64
2021/08/25 09:26:33;;;;;;;14.38;4.15;;;;;;;38.27;18.81;100513.16;4983958;28;106307;-63
2021/08/25 09:29:21;;;;;;;7.20;3.90;;;;;;;35.29;20.25;100507.34;4986904;28;105820;-64
2021/08/25 09:31:49;;;;;;;7.55;3.17;;;;;;;32.97;22.11;100500.28;4986951;28;106624;-64
2021/08/25 09:34:29;;;;;;;8.60;3.50;;;;;;;31.24;23.54;100501.63;4990044;28;106050;-64
2021/08/25 09:37:12;;;;;;;8.20;3.72;;;;;;;30.01;24.64;100499.53;4990430;28;106169;-63
2021/08/25 09:39:49;;;;;;;10.27;4.65;;;;;;;29.35;25.68;100492.81;4990490;28;105961;-62
2021/08/25 09:42:17;;;;;;;6.78;3.60;;;;;;;28.76;26.52;100494.63;4990168;28;105909;-63
2021/08/25 09:44:44;;;;;;;10.00;3.85;;;;;;;30.57;24.63;100488.94;4991701;28;106036;-64
2021/08/25 09:47:09;;;;;;;8.98;3.47;;;;;;;30.25;24.42;100484.97;4990202;28;106290;-64
2021/08/25 09:49:35;;;;;;;10.70;3.28;;;;;;;28.95;25.54;100490.13;4990585;28;106534;-64
2021/08/25 09:52:01;;;;;;;7.25;3.67;;;;;;;27.72;26.40;100482.50;4990030;28;106028;-64
2021/08/25 09:54:27;;;;;;;9.02;3.47;;;;;;;28.41;26.82;100469.91;4991474;28;106170;-64
2021/08/25 09:56:53;;;;;;;8.27;3.38;;;;;;;31.31;24.10;100469.03;4990555;28;106263;-64
2021/08/25 09:59:20;;;;;;;8.52;3.53;;;;;;;35.80;19.72;100465.13;4990284;28;106726;-65
2021/08/25 10:01:46;;;;;;;6.63;3.28;;;;;;;39.24;16.87;100465.78;4990456;28;106205;-65
2021/08/25 10:04:16;;;;;;;5.00;3.08;;;;;;;40.88;15.14;100468.25;4991335;28;106005;-64
2021/08/25 10:06:43;;;;;;;7.10;3.75;;;;;;;40.66;14.83;100465.03;4990397;28;106273;-64
2021/08/25 10:09:10;;;;;;;6.57;3.15;;;;;;;38.01;16.46;100463.47;4990042;28;105929;-63
2021/08/25 10:11:42;;;;;;;6.95;3.45;;;;;;;37.43;17.36;100451.34;4990154;28;106166;-64
2021/08/25 10:14:17;;;;;;;5.55;2.78;;;;;;;40.22;15.33;100452.19;4990611;28;106493;-64
2021/08/25 10:16:49;;;;;;;5.80;3.03;;;;;;;42.32;13.82;100448.13;4989681;28;105995;-65
2021/08/25 10:19:39;;;;;;;5.32;3.17;;;;;;;40.04;14.57;100442.56;4989547;28;105973;-64
2021/08/25 10:22:14;;;;;;;6.05;3.53;;;;;;;36.97;16.69;100439.44;4989973;28;105937;-64
2021/08/25 10:24:57;;;;;;;8.07;3.25;;;;;;;34.24;19.07;100435.47;4987581;28;105969;-64
2021/08/25 10:27:24;;;;;;;8.00;3.70;;;;;;;34.00;19.67;100434.00;4989933;28;106245;-65
2021/08/25 10:30:02;;;;;;;7.45;3.92;;;;;;;32.84;20.91;100423.94;4989828;28;106460;-64
2021/08/25 10:32:32;;;;;;;5.82;3.15;;;;;;;31.73;22.08;100417.56;4989811;28;106015;-65
2021/08/25 10:35:19;;;;;;;11.93;4.28;;;;;;;33.42;21.00;100416.59;4990472;28;105856;-64
2021/08/25 10:37:47;;;;;;;7.78;3.70;;;;;;;36.46;18.43;100402.72;4989716;28;106142;-66
2021/08/25 10:40:14;;;;;;;7.00;3.17;;;;;;;40.08;15.28;100404.44;4989043;28;106475;-63
2021/08/25 10:42:46;;;;;;;7.07;3.15;;;;;;;42.73;13.24;100403.44;4989423;28;106008;-65
2021/08/25 10:45:13;;;;;;;6.43;3.45;;;;;;;44.58;11.46;100402.56;4990271;28;106176;-63
2021/08/25 10:47:56;;;;;;;9.38;3.60;;;;;;;45.53;10.91;100392.94;4989778;28;106134;-65
2021/08/25 10:50:21;;;;;;;9.95;3.22;;;;;;;46.53;10.55;100388.06;4989234;28;106301;-65
2021/08/25 10:52:47;;;;;;;6.32;3.22;;;;;;;46.97;9.72;100380.88;4988910;28;106100;-65
2021/08/25 10:55:12;;;;;;;7.68;3.58;;;;;;;47.03;9.73;100379.25;4989346;28;106200;-64
2021/08/25 10:57:44;;;;;;;6.22;3.25;;;;;;;46.70;9.36;100367.44;4989738;28;106032;-64
2021/08/25 11:00:10;;;;;;;6.20;3.25;;;;;;;45.98;9.95;100359.41;4989748;28;105774;-64
2021/08/25 11:02:40;;;;;;;7.45;3.40;;;;;;;43.28;11.45;100348.66;4989368;28;105983;-64
2021/08/25 11:05:06;;;;;;;6.97;3.10;;;;;;;40.80;13.46;100340.84;4989651;28;106124;-65
2021/08/25 11:07:40;;;;;;;7.22;3.28;;;;;;;39.66;14.21;100344.59;4993474;28;106266;-64
2021/08/25 11:10:06;;;;;;;7.45;3.42;;;;;;;39.32;14.68;100332.25;4989198;28;106175;-64
2021/08/25 11:12:32;;;;;;;6.60;3.15;;;;;;;38.23;14.88;100325.88;4988771;28;106020;-65
2021/08/25 11:14:58;;;;;;;5.47;3.17;;;;;;;37.07;16.06;100325.16;4989885;28;106099;-65
2021/08/25 11:17:31;;;;;;;6.38;3.35;;;;;;;36.37;16.79;100317.63;4988914;28;106158;-64
2021/08/25 11:19:58;;;;;;;7.97;3.88;;;;;;;35.44;17.46;100314.94;4989339;28;106038;-64
2021/08/25 11:22:39;;;;;;;8.55;3.00;;;;;;;34.59;18.29;100308.28;4988431;28;106171;-65
2021/08/25 11:25:07;;;;;;;5.93;3.58;;;;;;;34.50;18.13;100301.94;4990070;28;106056;-63
2021/08/25 11:27:37;;;;;;;5.43;2.85;;;;;;;34.12;19.24;100294.34;4988931;28;106174;-63
2021/08/25 11:30:06;;;;;;;7.78;3.30;;;;;;;33.68;19.35;100297.94;4988826;28;107073;-64
2021/08/25 11:32:33;;;;;;;6.63;3.63;;;;;;;33.27;19.54;100296.38;4988709;28;106109;-64
2021/08/25 11:34:59;;;;;;;8.63;3.30;;;;;;;32.83;20.30;100287.13;4989425;28;106077;-65
2021/08/25 11:37:25;;;;;;;5.65;3.13;;;;;;;32.51;20.53;100278.03;4989301;28;106304;-64
2021/08/25 11:40:03;;;;;;;7.65;3.63;;;;;;;32.23;20.38;100275.41;4987783;28;105951;-65
2021/08/25 11:42:29;;;;;;;6.33;3.33;;;;;;;31.79;20.75;100282.53;4985282;28;105923;-65
2021/08/25 11:44:55;;;;;;;7.60;3.30;;;;;;;31.00;21.37;100271.50;4988534;28;106267;-64
2021/08/25 11:47:20;;;;;;;10.50;4.05;;;;;;;30.34;22.05;100268.81;4987721;28;106213;-66
2021/08/25 11:49:50;;;;;;;8.52;3.92;;;;;;;29.86;22.66;100252.59;4988147;28;106115;-64
2021/08/25 11:52:17;;;;;;;6.53;3.50;;;;;;;29.54;23.44;100259.63;4987719;28;105814;-64
2021/08/25 11:54:43;;;;;;;6.75;3.58;;;;;;;29.45;23.39;100262.22;4988352;28;105957;-64
2021/08/25 11:57:11;;;;;;;8.57;3.78;;;;;;;29.58;23.55;100252.44;4987218;28;106277;-64
2021/08/25 11:59:56;;;;;;;6.78;3.15;;;;;;;29.38;23.52;100243.38;4988458;28;106879;-65
2021/08/25 12:02:21;;;;;;;9.70;3.67;;;;;;;29.64;23.65;100229.28;4988511;28;105920;-63
2021/08/25 12:04:46;;;;;;;6.53;3.10;;;;;;;29.73;23.16;100228.59;4989158;28;106186;-65
2021/08/25 12:07:12;;;;;;;7.07;3.28;;;;;;;29.91;23.42;100224.22;4988585;28;106089;-65
2021/08/25 12:09:37;;;;;;;6.90;3.35;;;;;;;30.09;23.48;100219.84;4988243;28;106676;-66
2021/08/25 12:12:04;;;;;;;7.25;3.47;;;;;;;29.82;23.58;100215.84;4986414;28;108166;-66
2021/08/25 12:14:49;;;;;;;8.98;3.60;;;;;;;29.91;24.00;100211.34;4988816;28;105903;-65
2021/08/25 12:17:15;;;;;;;7.55;3.50;;;;;;;29.88;24.15;100211.91;4988305;28;106142;-66
2021/08/25 12:19:40;;;;;;;7.38;3.70;;;;;;;29.78;23.70;100209.31;4987939;28;106306;-65
2021/08/25 12:22:26;;;;;;;7.72;3.50;;;;;;;29.34;23.83;100206.66;4988166;28;105810;-64
2021/08/25 12:24:53;;;;;;;7.90;4.07;;;;;;;29.06;24.39;100191.94;4988682;28;106141;-65
2021/08/25 12:27:18;;;;;;;7.10;3.30;;;;;;;29.15;24.16;100198.38;4987996;28;106310;-65
2021/08/25 12:29:44;;;;;;;7.22;3.60;;;;;;;29.08;24.51;100197.13;4987836;28;105955;-65
2021/08/25 12:32:11;;;;;;;8.23;3.70;;;;;;;29.11;24.62;100191.84;4987716;28;106392;-65
2021/08/25 12:35:00;;;;;;;9.18;4.10;;;;;;;28.96;24.61;100189.31;4988457;28;106303;-65
2021/08/25 12:37:54;;;;;;;7.50;3.58;;;;;;;28.71;24.88;100185.78;4987929;28;106147;-64
2021/08/25 12:40:22;;;;;;;6.60;3.55;;;;;;;28.91;24.94;100182.00;4987670;28;107785;-64
2021/08/25 12:42:49;;;;;;;7.82;3.60;;;;;;;28.45;25.44;100174.28;4987522;28;106049;-64
2021/08/25 12:45:14;;;;;;;8.10;3.67;;;;;;;27.98;26.07;100185.63;4988333;28;106421;-66
2021/08/25 12:47:40;;;;;;;9.13;4.18;;;;;;;27.56;26.08;100173.38;4987941;28;106226;-66
2021/08/25 12:50:05;;;;;;;8.85;4.10;;;;;;;26.89;26.86;100173.72;4987937;28;105920;-65
2021/08/25 12:52:31;;;;;;;8.95;4.40;;;;;;;26.73;27.22;100174.88;4986713;28;106086;-66
2021/08/25 12:54:56;;;;;;;7.50;3.78;;;;;;;26.90;27.25;100172.63;4988242;28;105918;-65
2021/08/25 12:57:21;;;;;;;6.88;3.67;;;;;;;27.05;27.44;100155.34;4987301;28;106252;-64
2021/08/25 12:59:48;;;;;;;8.38;3.83;;;;;;;27.27;27.29;100154.94;4986853;28;105806;-64
2021/08/25 13:02:15;;;;;;;8.90;4.20;;;;;;;27.36;27.35;100155.19;4987162;28;105965;-64
2021/08/25 13:04:40;;;;;;;6.70;3.92;;;;;;;27.67;27.35;100158.50;4988448;28;105781;-64
2021/08/25 13:07:10;;;;;;;9.82;4.20;;;;;;;27.94;27.24;100153.63;4987226;28;106162;-64
2021/08/25 13:09:36;;;;;;;8.27;4.13;;;;;;;27.89;27.10;100145.47;4990099;28;106076;-64
2021/08/25 13:12:01;;;;;;;6.72;4.10;;;;;;;27.83;26.87;100145.53;4990548;28;106309;-64
2021/08/25 13:14:27;;;;;;;8.18;4.10;;;;;;;27.36;27.22;100141.50;4991769;28;105963;-63
2021/08/25 13:16:53;;;;;;;7.32;3.78;;;;;;;26.87;27.59;100123.97;4990816;28;106280;-64
2021/08/25 13:19:19;;;;;;;7.93;4.60;;;;;;;26.56;28.37;100129.56;4990699;28;106753;-64
2021/08/25 13:21:44;;;;;;;7.63;3.65;;;;;;;25.84;28.66;100116.81;4990798;28;105851;-64
2021/08/25 13:24:10;;;;;;;7.10;3.53;;;;;;;25.47;29.64;100115.19;4989561;28;106033;-64
2021/08/25 13:26:35;;;;;;;8.07;3.05;;;;;;;25.64;29.92;100111.38;4991061;28;106129;-64
2021/08/25 13:29:00;;;;;;;8.30;3.05;;;;;;;25.50;29.87;100114.66;4990735;28;106213;-64
2021/08/25 13:31:25;;;;;;;6.82;3.53;;;;;;;25.21;30.05;100105.34;4990820;28;106093;-64
2021/08/25 13:33:51;;;;;;;9.27;3.70;;;;;;;25.34;30.22;100096.63;4991507;28;105872;-64
2021/08/25 13:36:16;;;;;;;5.93;3.55;;;;;;;25.59;30.18;100093.13;4991164;28;106204;-64
2021/08/25 13:38:41;;;;;;;6.82;3.33;;;;;;;25.45;29.91;100079.22;4990553;28;106573;-64
2021/08/25 13:41:07;;;;;;;7.18;3.45;;;;;;;25.24;30.59;100083.78;4990105;28;106340;-64
2021/08/25 13:43:32;;;;;;;6.15;3.35;;;;;;;25.07;30.65;100085.94;4991580;28;105877;-64
2021/08/25 13:45:58;;;;;;;10.45;3.47;;;;;;;25.26;30.71;100086.25;4991064;28;106386;-64
2021/08/25 13:48:23;;;;;;;7.10;3.50;;;;;;;25.03;30.49;100082.94;4990672;28;107066;-64
2021/08/25 13:50:48;;;;;;;6.25;3.20;;;;;;;24.74;31.51;100077.97;4990515;28;106161;-64
2021/08/25 13:53:14;;;;;;;7.47;3.08;;;;;;;24.50;31.94;100075.66;4991804;28;106577;-64
2021/08/25 13:55:39;;;;;;;6.25;3.38;;;;;;;24.35;31.83;100066.63;4990534;28;106024;-64
2021/08/25 13:58:05;;;;;;;8.00;3.30;;;;;;;24.24;32.48;100063.84;4990410;28;106068;-63
2021/08/25 14:00:30;;;;;;;8.07;3.28;;;;;;;24.48;32.58;100061.50;4990444;28;105897;-64
2021/08/25 14:02:55;;;;;;;11.00;3.47;;;;;;;24.50;32.49;100045.72;4990368;28;105919;-63
2021/08/25 14:05:21;;;;;;;7.10;3.35;;;;;;;24.44;32.53;100044.06;4990023;28;106271;-64
2021/08/25 14:07:46;;;;;;;6.38;4.55;;;;;;;24.06;32.82;100042.50;4990219;28;107757;-64
2021/08/25 14:10:14;;;;;;;6.80;3.40;;;;;;;23.87;33.25;100039.38;4990664;28;105914;-64
